createdAt,value
2022-09-12T00:01:35.875Z,12.13
2022-09-12T00:04:02.763Z,14.55
2022-09-12T00:06:32.448Z,12.25
2022-09-12T00:09:02.685Z,11.60
2022-09-12T00:11:29.972Z,10.20
2022-09-12T00:14:01.753Z,11.73
2022-09-12T00:16:30.324Z,12.05
2022-09-12T00:18:57.215Z,11.73
2022-09-12T00:21:24.073Z,10.25
2022-09-12T00:23:51.513Z,13.38
2022-09-12T00:26:19.604Z,11.90
2022-09-12T00:28:47.035Z,12.57
2022-09-12T00:31:16.915Z,11.20
2022-09-12T00:33:43.965Z,13.20
2022-09-12T00:36:14.862Z,14.40
2022-09-12T00:38:42.779Z,12.40
2022-09-12T00:41:19.389Z,10.27
2022-09-12T00:43:58.555Z,13.32
2022-09-12T00:46:41.532Z,12.35
2022-09-12T00:49:24.547Z,15.90
2022-09-12T00:52:09.145Z,12.35
2022-09-12T00:54:49.551Z,12.20
2022-09-12T00:57:17.788Z,12.50
2022-09-12T00:59:50.610Z,12.70
2022-09-12T01:02:18.008Z,13.18
2022-09-12T01:04:45.153Z,10.93
2022-09-12T01:07:12.766Z,14.10
2022-09-12T01:09:40.819Z,11.07
2022-09-12T01:12:08.508Z,11.07
2022-09-12T01:14:35.561Z,11.48
2022-09-12T01:17:02.260Z,13.13
2022-09-12T01:19:52.706Z,11.82
2022-09-12T01:22:37.946Z,13.10
2022-09-12T01:25:31.896Z,15.32
2022-09-12T01:28:19.897Z,10.68
2022-09-12T01:31:01.491Z,12.93
2022-09-12T01:33:56.949Z,16.00
2022-09-12T01:36:34.519Z,10.63
2022-09-12T01:39:30.521Z,10.65
2022-09-12T01:42:16.892Z,10.57
2022-09-12T01:44:54.968Z,10.15
2022-09-12T01:47:24.164Z,11.35
2022-09-12T01:50:21.664Z,10.75
2022-09-12T01:53:22.942Z,13.43
2022-09-12T01:55:56.337Z,12.07
2022-09-12T01:58:33.081Z,12.82
2022-09-12T02:01:09.197Z,13.13
2022-09-12T02:03:46.584Z,8.80
2022-09-12T02:06:23.581Z,10.35
2022-09-12T02:09:08.141Z,9.60
2022-09-12T02:11:38.600Z,9.38
2022-09-12T02:14:11.219Z,11.38
2022-09-12T02:16:52.763Z,10.05
2022-09-12T02:19:24.227Z,9.80
2022-09-12T02:21:57.576Z,11.07
2022-09-12T02:24:30.108Z,9.05
2022-09-12T02:27:03.425Z,8.93
2022-09-12T02:29:30.250Z,8.95
2022-09-12T02:32:00.444Z,11.05
2022-09-12T02:34:51.078Z,9.48
2022-09-12T02:37:40.661Z,9.07
2022-09-12T02:40:08.804Z,11.50
2022-09-12T02:42:37.007Z,10.93
2022-09-12T02:45:03.960Z,10.18
2022-09-12T02:47:52.785Z,9.88
2022-09-12T02:50:20.073Z,11.50
2022-09-12T02:52:47.070Z,10.98
2022-09-12T02:55:14.794Z,9.98
2022-09-12T02:57:41.475Z,12.23
2022-09-12T03:00:09.186Z,10.07
2022-09-12T03:02:57.852Z,11.23
2022-09-12T03:05:34.329Z,11.50
2022-09-12T03:08:31.305Z,10.27
2022-09-12T03:11:26.566Z,11.48
2022-09-12T03:14:20.767Z,11.80
2022-09-12T03:17:00.403Z,10.07
2022-09-12T03:19:53.842Z,10.07
2022-09-12T03:22:53.714Z,9.55
2022-09-12T03:25:30.599Z,14.25
2022-09-12T03:28:07.555Z,11.05
2022-09-12T03:30:42.504Z,10.50
2022-09-12T03:33:14.761Z,9.52
2022-09-12T03:35:42.127Z,10.93
2022-09-12T03:38:09.284Z,9.55
2022-09-12T03:40:37.675Z,13.68
2022-09-12T03:43:05.921Z,9.52
2022-09-12T03:45:32.764Z,11.68
2022-09-12T03:47:59.603Z,9.40
2022-09-12T03:50:26.278Z,11.57
2022-09-12T03:52:52.915Z,10.40
2022-09-12T03:55:19.986Z,8.57
2022-09-12T03:57:46.604Z,8.18
2022-09-12T04:00:17.689Z,7.63
2022-09-12T04:02:46.493Z,9.15
2022-09-12T04:05:13.229Z,12.13
2022-09-12T04:07:39.807Z,10.55
2022-09-12T04:10:07.132Z,9.52
2022-09-12T04:12:35.552Z,8.35
2022-09-12T04:15:02.352Z,8.13
2022-09-12T04:17:28.928Z,8.00
2022-09-12T04:19:55.563Z,10.73
2022-09-12T04:22:22.184Z,8.13
2022-09-12T04:24:48.763Z,8.57
2022-09-12T04:27:15.337Z,7.75
2022-09-12T04:29:41.950Z,8.27
2022-09-12T04:32:08.605Z,9.02
2022-09-12T04:34:35.290Z,7.25
2022-09-12T04:37:01.932Z,7.95
2022-09-12T04:39:28.541Z,7.72
2022-09-12T04:41:56.715Z,10.07
2022-09-12T04:44:23.376Z,9.30
2022-09-12T04:46:50.100Z,10.18
2022-09-12T04:49:17.450Z,9.77
2022-09-12T04:51:44.081Z,11.65
2022-09-12T04:54:13.597Z,11.52
2022-09-12T04:56:42.657Z,14.80
2022-09-12T04:59:10.802Z,10.95
2022-09-12T05:01:37.589Z,10.18
2022-09-12T05:04:04.595Z,9.90
2022-09-12T05:06:34.395Z,9.38
2022-09-12T05:09:02.359Z,10.05
2022-09-12T05:11:59.720Z,8.73
2022-09-12T05:14:17.879Z,10.20
2022-09-12T05:16:49.065Z,11.15
2022-09-12T05:19:16.354Z,9.55
2022-09-12T05:21:42.960Z,11.38
2022-09-12T05:24:11.053Z,14.40
2022-09-12T05:26:37.667Z,10.73
2022-09-12T05:29:06.105Z,12.85
2022-09-12T05:31:33.478Z,13.27
2022-09-12T05:34:00.461Z,11.68
2022-09-12T05:36:29.281Z,15.05
2022-09-12T05:38:56.610Z,12.40
2022-09-12T05:41:26.111Z,12.82
2022-09-12T05:43:58.244Z,12.70
2022-09-12T05:46:27.244Z,14.52
2022-09-12T05:48:56.485Z,12.13
2022-09-12T05:51:28.337Z,12.10
2022-09-12T05:53:59.919Z,11.45
2022-09-12T05:56:28.980Z,16.98
2022-09-12T05:59:01.779Z,12.85
2022-09-12T06:01:30.513Z,14.15
2022-09-12T06:04:00.672Z,14.48
2022-09-12T06:06:28.753Z,15.15
2022-09-12T06:09:00.876Z,15.10
2022-09-12T06:11:30.127Z,15.30
2022-09-12T06:13:58.432Z,16.05
2022-09-12T06:16:27.842Z,16.38
2022-09-12T06:18:57.256Z,17.60
2022-09-12T06:21:25.323Z,16.30
2022-09-12T06:23:54.268Z,17.50
2022-09-12T06:26:23.504Z,16.70
2022-09-12T06:28:50.756Z,16.55
2022-09-12T06:31:20.507Z,20.63
2022-09-12T06:33:49.540Z,15.43
2022-09-12T06:36:25.153Z,17.77
2022-09-12T06:39:05.901Z,17.90
2022-09-12T06:41:32.828Z,24.42
2022-09-12T06:44:00.523Z,17.63
2022-09-12T06:46:27.948Z,19.13
2022-09-12T06:48:59.662Z,18.45
2022-09-12T06:51:27.504Z,22.85
2022-09-12T06:53:57.869Z,19.63
2022-09-12T06:56:26.678Z,22.08
2022-09-12T06:58:56.162Z,22.10
2022-09-12T07:01:24.879Z,23.75
2022-09-12T07:03:55.077Z,24.42
2022-09-12T07:06:24.422Z,22.63
2022-09-12T07:08:51.065Z,22.10
2022-09-12T07:11:21.457Z,21.00
2022-09-12T07:13:50.319Z,20.70
2022-09-12T07:16:19.993Z,25.05
2022-09-12T07:18:58.226Z,24.67
2022-09-12T07:21:25.536Z,21.08
2022-09-12T07:23:55.156Z,27.08
2022-09-12T07:26:21.779Z,19.52
2022-09-12T07:28:53.874Z,20.40
2022-09-12T07:31:22.755Z,22.25
2022-09-12T07:33:54.423Z,19.38
2022-09-12T07:36:24.606Z,18.48
2022-09-12T07:38:57.546Z,20.73
2022-09-12T07:41:29.637Z,16.50
2022-09-12T07:43:59.059Z,18.50
2022-09-12T07:46:27.333Z,19.50
2022-09-12T07:48:55.384Z,16.27
2022-09-12T07:51:23.469Z,16.67
2022-09-12T07:53:50.595Z,18.38
2022-09-12T07:56:19.848Z,15.13
2022-09-12T07:58:47.199Z,15.98
2022-09-12T08:01:19.482Z,14.73
2022-09-12T08:03:48.749Z,14.80
2022-09-12T08:06:20.254Z,13.23
2022-09-12T08:08:48.028Z,15.52
2022-09-12T08:11:17.406Z,12.68
2022-09-12T08:13:44.904Z,14.50
2022-09-12T08:16:17.833Z,12.38
2022-09-12T08:18:44.877Z,11.50
2022-09-12T08:21:16.732Z,12.20
2022-09-12T08:23:44.184Z,10.43
2022-09-12T08:26:12.377Z,9.77
2022-09-12T08:28:41.039Z,10.45
2022-09-12T08:31:10.542Z,7.07
2022-09-12T08:33:37.727Z,5.03
2022-09-12T08:36:08.637Z,4.28
2022-09-12T08:38:36.848Z,5.28
2022-09-12T08:41:07.239Z,4.80
2022-09-12T08:43:56.684Z,3.70
2022-09-12T08:46:32.539Z,3.60
2022-09-12T08:49:01.892Z,3.67
2022-09-12T08:51:29.963Z,5.50
2022-09-12T08:53:57.845Z,3.60
2022-09-12T08:56:31.454Z,4.55
2022-09-12T08:58:58.781Z,5.13
2022-09-12T09:01:32.520Z,3.63
2022-09-12T09:04:10.485Z,3.40
2022-09-12T09:07:16.220Z,3.63
2022-09-12T09:09:51.682Z,3.65
2022-09-12T09:12:32.881Z,2.50
2022-09-12T09:15:32.528Z,3.75
2022-09-12T09:18:25.207Z,3.72
2022-09-12T09:21:00.242Z,3.10
2022-09-12T09:23:42.010Z,4.53
2022-09-12T09:26:17.919Z,1.75
2022-09-12T09:28:54.658Z,1.88
2022-09-12T09:31:24.361Z,2.55
2022-09-12T09:33:55.276Z,3.17
2022-09-12T09:36:43.750Z,1.70
2022-09-12T09:39:50.157Z,2.45
2022-09-12T09:42:49.647Z,2.08
2022-09-12T09:45:24.167Z,2.27
2022-09-12T09:48:03.586Z,2.17
2022-09-12T09:50:30.338Z,1.37
2022-09-12T09:53:01.305Z,2.55
2022-09-12T09:55:37.073Z,2.55
2022-09-12T09:58:04.173Z,2.85
2022-09-12T10:00:36.118Z,2.35
2022-09-12T10:03:14.399Z,1.67
2022-09-12T10:05:53.218Z,3.72
2022-09-12T10:08:39.183Z,1.75
2022-09-12T10:11:19.296Z,1.40
2022-09-12T10:13:53.521Z,2.05
2022-09-12T10:16:27.926Z,1.30
2022-09-12T10:18:57.441Z,1.30
2022-09-12T10:21:45.843Z,1.92
2022-09-12T10:24:24.192Z,1.13
2022-09-12T10:27:09.522Z,3.38
2022-09-12T10:29:45.936Z,0.73
2022-09-12T10:32:19.445Z,3.60
2022-09-12T10:34:46.469Z,1.35
2022-09-12T10:37:29.360Z,1.10
2022-09-12T10:39:59.081Z,1.20
2022-09-12T10:42:44.967Z,0.90
2022-09-12T10:45:47.560Z,1.33
2022-09-12T10:48:31.863Z,0.98
2022-09-12T10:51:01.857Z,1.33
2022-09-12T10:53:42.954Z,1.27
2022-09-12T10:56:13.066Z,1.45
2022-09-12T10:59:01.423Z,1.92
2022-09-12T11:01:41.904Z,1.90
2022-09-12T11:04:59.524Z,1.08
2022-09-12T11:07:49.784Z,2.38
2022-09-12T11:13:01.848Z,2.65
2022-09-12T11:15:50.028Z,2.25
2022-09-12T11:18:24.981Z,1.33
2022-09-12T11:20:58.329Z,2.20
2022-09-12T11:27:01.129Z,2.65
2022-09-12T11:29:46.777Z,1.40
2022-09-12T11:32:30.185Z,0.85
2022-09-12T11:35:17.609Z,1.67
2022-09-12T11:38:11.800Z,1.10
2022-09-12T11:40:55.610Z,0.98
2022-09-12T11:43:38.542Z,1.13
2022-09-12T11:46:31.605Z,1.27
2022-09-12T11:49:04.669Z,0.80
2022-09-12T11:51:42.702Z,2.15
2022-09-12T11:54:34.016Z,0.82
2022-09-12T11:57:25.329Z,2.95
2022-09-12T12:00:26.148Z,2.75
2022-09-12T12:03:24.124Z,1.80
2022-09-12T12:06:07.725Z,4.00
2022-09-12T12:08:45.794Z,1.02
2022-09-12T12:11:28.581Z,1.35
2022-09-12T12:14:00.602Z,1.33
2022-09-12T12:16:28.855Z,1.85
2022-09-12T12:18:59.162Z,1.63
2022-09-12T12:21:41.442Z,2.60
2022-09-12T12:24:08.022Z,1.73
2022-09-12T12:26:43.647Z,1.27
2022-09-12T12:29:44.266Z,2.50
2022-09-12T12:32:11.118Z,0.60
2022-09-12T12:34:40.195Z,1.90
2022-09-12T12:37:22.111Z,3.50
2022-09-12T12:40:01.315Z,0.95
2022-09-12T12:42:36.814Z,2.15
2022-09-12T12:45:09.452Z,0.85
2022-09-12T12:47:35.981Z,1.02
2022-09-12T12:50:05.620Z,1.08
2022-09-12T12:52:45.123Z,4.10
2022-09-12T12:55:20.115Z,2.80
2022-09-12T12:57:55.885Z,1.80
2022-09-12T13:00:35.056Z,0.80
2022-09-12T13:03:08.075Z,1.53
2022-09-12T13:05:49.424Z,1.58
2022-09-12T13:08:18.764Z,1.95
2022-09-12T13:11:04.969Z,0.68
2022-09-12T13:13:52.135Z,3.00
2022-09-12T13:16:39.882Z,2.10
2022-09-12T13:19:23.050Z,1.40
2022-09-12T13:21:57.210Z,1.13
2022-09-12T13:24:24.187Z,0.80
2022-09-12T13:26:50.908Z,1.00
2022-09-12T13:29:20.229Z,1.35
2022-09-12T13:31:58.545Z,2.42
2022-09-12T13:34:27.719Z,2.08
2022-09-12T13:37:35.407Z,0.70
2022-09-12T13:40:28.009Z,1.80
2022-09-12T13:43:08.394Z,0.70
2022-09-12T13:45:39.337Z,2.00
2022-09-12T13:48:10.079Z,7.57
2022-09-12T13:50:45.634Z,10.25
2022-09-12T13:53:19.236Z,5.95
2022-09-12T13:55:48.128Z,5.82
2022-09-12T13:58:33.197Z,17.73
2022-09-12T14:01:12.391Z,5.35
2022-09-12T14:04:15.008Z,3.00
2022-09-12T14:06:52.368Z,1.80
2022-09-12T14:09:25.383Z,1.60
2022-09-12T14:11:53.015Z,4.32
2022-09-12T14:14:50.504Z,7.32
2022-09-12T14:17:23.555Z,4.25
2022-09-12T14:19:52.768Z,9.27
2022-09-12T14:22:19.609Z,4.97
2022-09-12T14:24:51.600Z,18.58
2022-09-12T14:27:26.753Z,7.20
2022-09-12T14:30:09.198Z,4.57
2022-09-12T14:32:36.204Z,5.28
2022-09-12T14:35:12.076Z,10.52
2022-09-12T14:37:39.870Z,2.35
2022-09-12T14:40:18.897Z,4.00
2022-09-12T14:42:46.832Z,3.03
2022-09-12T14:45:34.315Z,9.98
2022-09-12T14:48:01.129Z,4.57
2022-09-12T14:50:32.295Z,10.02
2022-09-12T14:53:23.964Z,11.98
2022-09-12T14:55:59.482Z,3.65
2022-09-12T14:58:28.566Z,4.03
2022-09-12T15:01:19.560Z,2.28
2022-09-12T15:03:49.809Z,3.85
2022-09-12T15:06:29.691Z,6.18
2022-09-12T15:09:00.115Z,7.07
2022-09-12T15:11:26.816Z,6.05
2022-09-12T15:13:53.461Z,4.35
2022-09-12T15:16:20.652Z,8.27
2022-09-12T15:18:47.271Z,12.73
2022-09-12T15:21:20.116Z,10.75
2022-09-12T15:23:49.182Z,6.00
2022-09-12T15:26:19.059Z,9.80
2022-09-12T15:28:46.082Z,6.70
2022-09-12T15:31:32.498Z,3.42
2022-09-12T15:34:01.456Z,9.52
2022-09-12T15:36:31.319Z,4.68
2022-09-12T15:38:58.596Z,3.05
2022-09-12T15:41:39.545Z,6.82
2022-09-12T15:44:10.400Z,5.13
2022-09-12T15:46:37.341Z,5.20
2022-09-12T15:49:04.197Z,5.60
2022-09-12T15:51:30.761Z,10.48
2022-09-12T15:53:57.352Z,22.33
2022-09-12T15:56:24.019Z,13.65
2022-09-12T15:59:00.032Z,11.77
2022-09-12T16:01:28.736Z,6.82
2022-09-12T16:03:55.455Z,7.43
2022-09-12T16:06:22.324Z,6.22
2022-09-12T16:08:49.359Z,4.35
2022-09-12T16:11:24.281Z,6.28
2022-09-12T16:13:53.757Z,6.07
2022-09-12T16:16:20.389Z,3.58
2022-09-12T16:18:47.301Z,4.22
2022-09-12T16:21:15.530Z,3.00
2022-09-12T16:23:43.833Z,3.92
2022-09-12T16:26:10.475Z,4.88
2022-09-12T16:28:37.347Z,3.28
2022-09-12T16:31:06.333Z,3.20
2022-09-12T16:33:33.662Z,3.35
2022-09-12T16:36:06.007Z,6.85
2022-09-12T16:38:33.826Z,4.88
2022-09-12T16:41:06.096Z,3.38
2022-09-12T16:43:34.594Z,3.85
2022-09-12T16:46:05.176Z,3.80
2022-09-12T16:48:32.561Z,3.00
2022-09-12T16:51:01.938Z,2.47
2022-09-12T16:53:33.271Z,8.65
2022-09-12T16:56:00.085Z,4.30
2022-09-12T16:58:26.858Z,4.65
2022-09-12T17:01:04.989Z,4.47
2022-09-12T17:03:31.976Z,3.67
2022-09-12T17:06:04.521Z,2.53
2022-09-12T17:08:34.292Z,3.80
2022-09-12T17:11:02.593Z,2.28
2022-09-12T17:13:52.862Z,5.05
2022-09-12T17:16:19.383Z,5.55
2022-09-12T17:18:46.839Z,2.97
2022-09-12T17:21:14.523Z,5.40
2022-09-12T17:23:41.680Z,4.15
2022-09-12T17:26:10.113Z,4.72
2022-09-12T17:28:38.023Z,3.78
2022-09-12T17:31:08.007Z,5.32
2022-09-12T17:33:35.024Z,6.82
2022-09-12T17:36:11.190Z,4.75
2022-09-12T17:38:42.438Z,3.60
2022-09-12T17:41:17.800Z,2.92
2022-09-12T17:43:50.200Z,3.35
2022-09-12T17:46:18.474Z,4.65
2022-09-12T17:48:45.516Z,6.03
2022-09-12T17:51:15.003Z,5.28
2022-09-12T17:53:43.041Z,7.20
2022-09-12T17:56:10.322Z,6.65
2022-09-12T17:58:37.343Z,3.88
2022-09-12T18:01:23.812Z,5.05
2022-09-12T18:03:54.580Z,8.80
2022-09-12T18:06:22.347Z,6.75
2022-09-12T18:08:49.001Z,7.35
2022-09-12T18:11:16.435Z,4.28
2022-09-12T18:13:43.059Z,10.32
2022-09-12T18:16:11.742Z,6.93
2022-09-12T18:18:38.881Z,4.78
2022-09-12T18:21:07.428Z,5.75
2022-09-12T18:23:34.888Z,5.18
2022-09-12T18:26:04.699Z,5.93
2022-09-12T18:28:35.767Z,3.72
2022-09-12T18:31:02.554Z,5.90
2022-09-12T18:33:29.261Z,7.82
2022-09-12T18:35:56.183Z,5.60
2022-09-12T18:38:22.772Z,5.70
2022-09-12T18:40:49.556Z,4.30
2022-09-12T18:43:16.216Z,3.08
2022-09-12T18:45:42.817Z,6.60
2022-09-12T18:48:09.457Z,3.47
2022-09-12T18:50:36.056Z,4.28
2022-09-12T18:53:02.714Z,4.95
2022-09-12T18:55:30.773Z,7.13
2022-09-12T18:57:57.567Z,3.65
2022-09-12T19:00:24.256Z,3.55
2022-09-12T19:02:50.834Z,6.97
2022-09-12T19:05:17.499Z,4.13
2022-09-12T19:07:44.132Z,7.93
2022-09-12T19:10:11.960Z,7.47
2022-09-12T19:12:38.635Z,4.82
2022-09-12T19:15:06.134Z,5.93
2022-09-12T19:17:32.772Z,7.05
2022-09-12T19:19:59.398Z,5.90
2022-09-12T19:22:26.360Z,5.35
2022-09-12T19:24:52.992Z,8.10
2022-09-12T19:27:19.568Z,5.18
2022-09-12T19:29:46.325Z,11.00
2022-09-12T19:32:12.909Z,13.10
2022-09-12T19:34:39.587Z,5.75
2022-09-12T19:37:06.210Z,11.60
2022-09-12T19:39:33.062Z,6.68
2022-09-12T19:41:59.684Z,5.93
2022-09-12T19:44:27.562Z,8.75
2022-09-12T19:46:54.299Z,7.18
2022-09-12T19:49:20.900Z,4.82
2022-09-12T19:51:47.576Z,5.32
2022-09-12T19:54:14.178Z,8.68
2022-09-12T19:56:40.821Z,7.50
2022-09-12T19:59:08.684Z,4.35
2022-09-12T20:01:37.180Z,3.83
2022-09-12T20:04:04.688Z,3.58
2022-09-12T20:06:31.301Z,5.25
2022-09-12T20:08:58.024Z,8.00
2022-09-12T20:11:25.811Z,5.88
2022-09-12T20:13:52.929Z,7.53
2022-09-12T20:16:25.651Z,4.25
2022-09-12T20:18:55.531Z,5.18
2022-09-12T20:21:31.663Z,5.85
2022-09-12T20:24:07.576Z,7.18
2022-09-12T20:26:34.494Z,4.68
2022-09-12T20:29:01.299Z,7.47
2022-09-12T20:31:28.479Z,5.35
2022-09-12T20:33:55.394Z,4.55
2022-09-12T20:36:22.600Z,5.90
2022-09-12T20:38:56.495Z,4.47
2022-09-12T20:41:24.007Z,6.70
2022-09-12T20:43:52.297Z,4.22
2022-09-12T20:46:22.093Z,4.75
2022-09-12T20:48:49.750Z,5.05
2022-09-12T20:51:16.784Z,4.47
2022-09-12T20:53:43.447Z,6.70
2022-09-12T20:56:10.086Z,4.53
2022-09-12T20:58:39.375Z,4.93
2022-09-12T21:01:11.504Z,6.32
2022-09-12T21:03:42.221Z,7.13
2022-09-12T21:06:12.414Z,5.35
2022-09-12T21:08:39.397Z,6.65
2022-09-12T21:11:07.077Z,11.45
2022-09-12T21:13:33.812Z,8.90
2022-09-12T21:16:02.389Z,5.88
2022-09-12T21:18:29.862Z,4.20
2022-09-12T21:20:56.601Z,4.03
2022-09-12T21:23:24.749Z,7.82
2022-09-12T21:25:52.698Z,5.43
2022-09-12T21:28:20.406Z,4.95
2022-09-12T21:30:51.378Z,6.22
2022-09-12T21:33:20.191Z,4.57
2022-09-12T21:35:47.766Z,4.18
2022-09-12T21:38:18.577Z,3.83
2022-09-12T21:40:46.256Z,6.03
2022-09-12T21:43:13.684Z,4.95
2022-09-12T21:45:40.771Z,4.57
2022-09-12T21:48:07.726Z,6.03
2022-09-12T21:50:34.689Z,8.25
2022-09-12T21:53:01.333Z,5.75
2022-09-12T21:55:27.969Z,5.13
2022-09-12T21:57:55.379Z,4.25
2022-09-12T22:00:22.781Z,4.57
2022-09-12T22:02:49.470Z,5.53
2022-09-12T22:05:17.340Z,7.68
2022-09-12T22:07:44.721Z,7.30
2022-09-12T22:10:11.486Z,4.18
2022-09-12T22:12:39.953Z,8.05
2022-09-12T22:15:36.491Z,5.47
2022-09-12T22:17:56.792Z,4.97
2022-09-12T22:20:23.681Z,4.88
2022-09-12T22:23:09.010Z,4.93
2022-09-12T22:25:35.693Z,5.93
2022-09-12T22:28:02.465Z,6.60
2022-09-12T22:30:29.173Z,6.95
2022-09-12T22:32:55.782Z,5.05
2022-09-12T22:35:22.378Z,4.00
2022-09-12T22:37:49.101Z,5.75
2022-09-12T22:40:15.902Z,5.90
2022-09-12T22:42:42.845Z,4.65
2022-09-12T22:45:09.982Z,4.35
2022-09-12T22:47:36.783Z,4.70
2022-09-12T22:50:03.910Z,7.03
2022-09-12T22:52:30.518Z,6.15
2022-09-12T22:54:57.215Z,5.50
2022-09-12T22:57:23.829Z,4.95
2022-09-12T22:59:50.405Z,5.88
2022-09-12T23:02:17.047Z,4.03
2022-09-12T23:04:43.901Z,4.50
2022-09-12T23:07:10.713Z,5.78
2022-09-12T23:09:37.281Z,4.82
2022-09-12T23:12:04.473Z,5.35
2022-09-12T23:14:31.126Z,4.47
2022-09-12T23:16:57.778Z,6.60
2022-09-12T23:19:24.394Z,5.78
2022-09-12T23:21:51.103Z,5.70
2022-09-12T23:24:17.874Z,5.10
2022-09-12T23:26:44.452Z,4.70
2022-09-12T23:29:11.495Z,5.93
2022-09-12T23:31:38.191Z,4.82
2022-09-12T23:34:06.091Z,5.38
2022-09-12T23:36:33.687Z,5.32
2022-09-12T23:39:00.309Z,4.18
2022-09-12T23:41:26.976Z,5.13
2022-09-12T23:43:54.035Z,4.32
2022-09-12T23:46:21.217Z,4.20
2022-09-12T23:48:48.301Z,4.03
2022-09-12T23:51:15.239Z,4.32
2022-09-12T23:53:42.086Z,7.90
2022-09-12T23:56:09.068Z,3.88
2022-09-12T23:58:35.710Z,4.75
